createdAt,value
2022-10-09T00:00:02.918Z,12.65
2022-10-09T00:01:03.404Z,12.69
2022-10-09T00:02:03.727Z,12.55
2022-10-09T00:03:04.026Z,12.65
2022-10-09T00:04:04.228Z,12.54
2022-10-09T00:05:04.346Z,12.63
2022-10-09T00:06:04.706Z,12.57
2022-10-09T00:07:04.917Z,12.68
2022-10-09T00:08:05.106Z,12.66
2022-10-09T00:09:05.715Z,12.65
2022-10-09T00:10:05.913Z,12.63
2022-10-09T00:11:06.406Z,12.51
2022-10-09T00:12:06.817Z,12.66
2022-10-09T00:13:06.755Z,12.58
2022-10-09T00:14:07.724Z,12.63
2022-10-09T00:15:08.664Z,12.57
2022-10-09T00:16:08.999Z,12.62
2022-10-09T00:17:10.019Z,12.61
2022-10-09T00:18:09.967Z,12.57
2022-10-09T00:19:10.693Z,12.68
2022-10-09T00:20:10.604Z,12.55
2022-10-09T00:21:11.237Z,12.51
2022-10-09T00:22:11.171Z,12.53
2022-10-09T00:23:12.109Z,12.66
2022-10-09T00:24:12.740Z,12.61
2022-10-09T00:25:13.238Z,12.63
2022-10-09T00:26:13.592Z,12.62
2022-10-09T00:27:13.904Z,12.63
2022-10-09T00:28:14.976Z,12.61
2022-10-09T00:29:15.735Z,12.63
2022-10-09T00:30:15.649Z,12.63
2022-10-09T00:31:16.324Z,12.69
2022-10-09T00:32:16.186Z,12.61
2022-10-09T00:33:16.681Z,12.63
2022-10-09T00:34:17.170Z,12.68
2022-10-09T00:35:17.063Z,12.69
2022-10-09T00:36:17.971Z,12.54
2022-10-09T00:37:18.900Z,12.61
2022-10-09T00:38:20.113Z,12.57
2022-10-09T00:39:20.967Z,12.55
2022-10-09T00:40:21.584Z,12.61
2022-10-09T00:41:22.498Z,12.54
2022-10-09T00:42:23.108Z,12.58
2022-10-09T00:43:24.011Z,12.57
2022-10-09T00:44:24.495Z,12.58
2022-10-09T00:45:24.713Z,12.51
2022-10-09T00:46:24.484Z,12.62
2022-10-09T00:47:25.580Z,12.58
2022-10-09T00:48:26.193Z,12.57
2022-10-09T00:49:27.503Z,12.62
2022-10-09T00:50:27.819Z,12.66
2022-10-09T00:51:28.451Z,12.61
2022-10-09T00:52:28.890Z,12.54
2022-10-09T00:53:29.528Z,12.57
2022-10-09T00:54:29.759Z,12.53
2022-10-09T00:55:30.086Z,12.61
2022-10-09T00:56:31.273Z,12.66
2022-10-09T00:57:32.465Z,12.58
2022-10-09T00:58:33.387Z,12.61
2022-10-09T00:59:33.946Z,12.61
2022-10-09T01:00:34.863Z,12.55
2022-10-09T01:01:34.748Z,12.54
2022-10-09T01:02:35.306Z,12.57
2022-10-09T01:03:35.731Z,12.5
2022-10-09T01:04:36.645Z,12.57
2022-10-09T01:05:36.574Z,12.51
2022-10-09T01:06:37.763Z,12.48
2022-10-09T01:07:38.002Z,12.51
2022-10-09T01:08:38.341Z,12.55
2022-10-09T01:09:39.956Z,12.54
2022-10-09T01:10:40.880Z,12.53
2022-10-09T01:11:41.071Z,12.55
2022-10-09T01:12:41.563Z,12.51
2022-10-09T01:13:41.947Z,12.53
2022-10-09T01:14:42.127Z,12.45
2022-10-09T01:15:42.436Z,12.53
2022-10-09T01:16:42.532Z,12.47
2022-10-09T01:17:43.170Z,12.45
2022-10-09T01:18:43.374Z,12.39
2022-10-09T01:19:44.344Z,12.57
2022-10-09T01:20:44.935Z,12.45
2022-10-09T01:21:45.559Z,12.48
2022-10-09T01:22:46.861Z,12.37
2022-10-09T01:23:46.155Z,12.43
2022-10-09T01:24:47.363Z,12.45
2022-10-09T01:25:48.277Z,12.44
2022-10-09T01:26:48.918Z,12.45
2022-10-09T01:27:49.552Z,12.45
2022-10-09T01:28:51.144Z,12.47
2022-10-09T01:29:51.435Z,12.48
2022-10-09T01:30:51.526Z,12.47
2022-10-09T01:31:51.888Z,12.53
2022-10-09T01:32:52.662Z,12.53
2022-10-09T01:33:53.288Z,12.53
2022-10-09T01:34:54.502Z,12.37
2022-10-09T01:35:54.440Z,12.39
2022-10-09T01:36:54.352Z,12.4
2022-10-09T01:37:55.765Z,12.47
2022-10-09T01:38:56.401Z,12.39
2022-10-09T01:39:57.677Z,12.39
2022-10-09T01:40:57.877Z,12.44
2022-10-09T01:41:58.767Z,12.39
2022-10-09T01:42:58.966Z,12.36
2022-10-09T01:43:59.612Z,12.39
2022-10-09T01:44:59.812Z,12.37
2022-10-09T01:46:01.085Z,12.4
2022-10-09T01:47:01.394Z,12.37
2022-10-09T01:48:01.739Z,12.33
2022-10-09T01:49:03.057Z,12.37
2022-10-09T01:50:04.103Z,12.37
2022-10-09T01:51:04.421Z,12.3
2022-10-09T01:52:05.456Z,12.29
2022-10-09T01:53:06.514Z,12.29
2022-10-09T01:54:07.724Z,12.39
2022-10-09T01:55:07.944Z,12.29
2022-10-09T01:56:08.285Z,12.28
2022-10-09T01:57:09.202Z,12.28
2022-10-09T01:58:09.695Z,12.28
2022-10-09T01:59:16.311Z,12.32
2022-10-09T02:00:11.060Z,12.28
2022-10-09T02:01:12.130Z,12.29
2022-10-09T02:02:13.743Z,12.3
2022-10-09T02:03:13.589Z,12.25
2022-10-09T02:04:14.483Z,12.26
2022-10-09T02:05:14.526Z,12.18
2022-10-09T02:06:15.736Z,12.28
2022-10-09T02:07:15.933Z,12.26
2022-10-09T02:08:16.308Z,12.32
2022-10-09T02:09:16.918Z,12.28
2022-10-09T02:10:17.203Z,12.32
2022-10-09T02:11:16.826Z,12.33
2022-10-09T02:12:17.137Z,12.29
2022-10-09T02:13:17.731Z,12.37
2022-10-09T02:14:18.247Z,12.35
2022-10-09T02:15:17.874Z,12.29
2022-10-09T02:16:19.095Z,12.32
2022-10-09T02:17:19.706Z,12.29
2022-10-09T02:18:19.318Z,12.25
2022-10-09T02:19:20.228Z,12.33
2022-10-09T02:20:21.218Z,12.28
2022-10-09T02:21:21.426Z,12.3
2022-10-09T02:22:21.617Z,12.18
2022-10-09T02:23:21.557Z,12.18
2022-10-09T02:24:22.749Z,12.25
2022-10-09T02:25:22.671Z,12.29
2022-10-09T02:26:23.883Z,12.3
2022-10-09T02:27:23.791Z,12.17
2022-10-09T02:28:25.208Z,12.15
2022-10-09T02:29:25.792Z,12.28
2022-10-09T02:30:27.090Z,12.25
2022-10-09T02:31:27.418Z,12.21
2022-10-09T02:32:27.568Z,12.18
2022-10-09T02:33:28.199Z,12.15
2022-10-09T02:34:28.809Z,12.2
2022-10-09T02:35:29.004Z,12.21
2022-10-09T02:36:29.898Z,12.18
2022-10-09T02:37:30.323Z,12.17
2022-10-09T02:38:31.268Z,12.1
2022-10-09T02:39:32.184Z,12.18
2022-10-09T02:40:32.654Z,12.11
2022-10-09T02:41:33.565Z,12.11
2022-10-09T02:42:34.482Z,12.03
2022-10-09T02:43:35.375Z,12.1
2022-10-09T02:44:35.352Z,12
2022-10-09T02:45:36.549Z,12.05
2022-10-09T02:46:36.895Z,12.11
2022-10-09T02:47:36.989Z,12.03
2022-10-09T02:48:37.925Z,12.03
2022-10-09T02:49:38.412Z,12.07
2022-10-09T02:50:38.454Z,12.05
2022-10-09T02:51:38.947Z,12.05
2022-10-09T02:52:39.563Z,12.08
2022-10-09T02:53:40.233Z,12.11
2022-10-09T02:54:40.719Z,12.18
2022-10-09T02:55:41.346Z,12.12
2022-10-09T02:56:45.139Z,12.18
2022-10-09T02:57:42.458Z,12.15
2022-10-09T02:58:42.878Z,12.15
2022-10-09T02:59:44.090Z,12.17
2022-10-09T03:00:44.344Z,12.18
2022-10-09T03:01:44.733Z,12.15
2022-10-09T03:02:45.187Z,12.17
2022-10-09T03:03:45.451Z,12.17
2022-10-09T03:04:46.089Z,12.15
2022-10-09T03:05:46.996Z,12.1
2022-10-09T03:06:47.615Z,12.1
2022-10-09T03:07:48.526Z,12.05
2022-10-09T03:08:49.742Z,12.03
2022-10-09T03:09:49.659Z,12
2022-10-09T03:10:50.763Z,12.03
2022-10-09T03:11:51.380Z,12.05
2022-10-09T03:12:52.718Z,11.96
2022-10-09T03:13:52.907Z,12.02
2022-10-09T03:14:53.117Z,12.03
2022-10-09T03:15:53.938Z,12.07
2022-10-09T03:16:54.710Z,12
2022-10-09T03:17:55.344Z,12.05
2022-10-09T03:18:56.262Z,11.99
2022-10-09T03:19:56.453Z,12.05
2022-10-09T03:20:57.147Z,12.05
2022-10-09T03:21:57.357Z,12.03
2022-10-09T03:22:57.773Z,12
2022-10-09T03:23:58.297Z,12.07
2022-10-09T03:24:57.926Z,12
2022-10-09T03:25:58.883Z,12.07
2022-10-09T03:26:59.518Z,12.08
2022-10-09T03:27:59.779Z,12.08
2022-10-09T03:29:00.327Z,12.02
2022-10-09T03:30:00.694Z,12.05
2022-10-09T03:31:01.918Z,12.15
2022-10-09T03:32:03.114Z,12
2022-10-09T03:33:03.481Z,12
2022-10-09T03:34:03.667Z,12.02
2022-10-09T03:35:04.317Z,12.17
2022-10-09T03:36:05.204Z,12.03
2022-10-09T03:37:05.818Z,12.17
2022-10-09T03:38:06.764Z,12.05
2022-10-09T03:39:06.699Z,12.02
2022-10-09T03:40:07.890Z,11.97
2022-10-09T03:41:07.919Z,11.95
2022-10-09T03:42:08.575Z,11.83
2022-10-09T03:43:09.489Z,11.91
2022-10-09T03:44:09.975Z,11.85
2022-10-09T03:45:10.195Z,11.88
2022-10-09T03:46:10.481Z,11.85
2022-10-09T03:47:10.569Z,11.91
2022-10-09T03:48:11.465Z,11.93
2022-10-09T03:49:11.497Z,11.86
2022-10-09T03:50:11.813Z,11.88
2022-10-09T03:51:12.885Z,11.91
2022-10-09T03:52:13.225Z,11.85
2022-10-09T03:53:14.138Z,11.76
2022-10-09T03:54:14.406Z,11.81
2022-10-09T03:55:14.597Z,11.76
2022-10-09T03:56:14.946Z,11.63
2022-10-09T03:57:16.172Z,11.6
2022-10-09T03:58:15.808Z,11.53
2022-10-09T03:59:17.018Z,11.51
2022-10-09T04:00:17.684Z,11.45
2022-10-09T04:01:18.337Z,11.45
2022-10-09T04:02:19.010Z,11.56
2022-10-09T04:03:19.146Z,11.55
2022-10-09T04:04:20.067Z,11.44
2022-10-09T04:05:20.961Z,11.38
2022-10-09T04:06:21.298Z,11.35
2022-10-09T04:07:21.381Z,11.31
2022-10-09T04:08:21.589Z,11.35
2022-10-09T04:09:21.999Z,11.2
2022-10-09T04:10:22.928Z,11.16
2022-10-09T04:11:24.229Z,11.2
2022-10-09T04:12:25.157Z,11.25
2022-10-09T04:13:24.771Z,11.19
2022-10-09T04:14:25.407Z,11.25
2022-10-09T04:15:26.986Z,11.1
2022-10-09T04:16:26.734Z,11.16
2022-10-09T04:17:27.436Z,11.18
2022-10-09T04:18:28.076Z,11.05
2022-10-09T04:19:28.692Z,11
2022-10-09T04:20:29.586Z,11.04
2022-10-09T04:21:29.575Z,11.02
2022-10-09T04:22:30.502Z,11.04
2022-10-09T04:23:31.096Z,10.95
2022-10-09T04:24:32.020Z,10.94
2022-10-09T04:25:32.931Z,11.04
2022-10-09T04:26:33.859Z,11.07
2022-10-09T04:27:33.473Z,11.01
2022-10-09T04:28:35.294Z,11.02
2022-10-09T04:29:34.901Z,10.98
2022-10-09T04:30:35.534Z,10.95
2022-10-09T04:31:35.677Z,10.98
2022-10-09T04:32:36.838Z,11.07
2022-10-09T04:33:36.834Z,11.02
2022-10-09T04:34:37.447Z,11.01
2022-10-09T04:35:38.671Z,11.04
2022-10-09T04:36:39.301Z,11.04
2022-10-09T04:37:39.205Z,11.07
2022-10-09T04:38:39.825Z,11.05
2022-10-09T04:39:40.742Z,10.98
2022-10-09T04:40:41.378Z,11.1
2022-10-09T04:41:44.248Z,11.13
2022-10-09T04:42:42.167Z,11.16
2022-10-09T04:43:42.810Z,11.19
2022-10-09T04:44:43.005Z,11.25
2022-10-09T04:45:43.824Z,11.35
2022-10-09T04:46:43.650Z,11.26
2022-10-09T04:47:44.873Z,11.22
2022-10-09T04:48:45.084Z,11.26
2022-10-09T04:49:45.693Z,11.23
2022-10-09T04:50:46.615Z,11.16
2022-10-09T04:51:46.908Z,11.26
2022-10-09T04:52:48.194Z,11.19
2022-10-09T04:53:48.277Z,11.15
2022-10-09T04:54:49.331Z,11.15
2022-10-09T04:55:49.993Z,11.15
2022-10-09T04:56:51.295Z,11.13
2022-10-09T04:57:51.486Z,11.1
2022-10-09T04:58:51.974Z,11.1
2022-10-09T04:59:51.604Z,11.19
2022-10-09T05:00:53.003Z,11.04
2022-10-09T05:01:54.029Z,11.1
2022-10-09T05:02:54.458Z,11.15
2022-10-09T05:03:54.492Z,11.16
2022-10-09T05:04:55.702Z,11.13
2022-10-09T05:05:55.611Z,11.16
2022-10-09T05:06:55.928Z,11.1
2022-10-09T05:07:56.820Z,11.07
2022-10-09T05:08:57.163Z,10.98
2022-10-09T05:09:58.388Z,11.08
2022-10-09T05:10:58.581Z,11.1
2022-10-09T05:11:59.950Z,11.15
2022-10-09T05:12:59.561Z,11.1
2022-10-09T05:13:59.904Z,11.04
2022-10-09T05:15:01.516Z,11.08
2022-10-09T05:16:02.226Z,11.13
2022-10-09T05:17:23.887Z,11.15
2022-10-09T05:18:03.397Z,11.08
2022-10-09T05:19:03.736Z,11.12
2022-10-09T05:20:04.345Z,11.08
2022-10-09T05:21:05.565Z,11.07
2022-10-09T05:22:06.269Z,11.05
2022-10-09T05:23:07.184Z,11.08
2022-10-09T05:24:10.961Z,11.01
2022-10-09T05:25:08.178Z,11.02
2022-10-09T05:26:09.065Z,10.89
2022-10-09T05:27:09.287Z,10.97
2022-10-09T05:28:09.597Z,10.98
2022-10-09T05:29:09.395Z,10.98
2022-10-09T05:30:09.310Z,10.92
2022-10-09T05:31:10.739Z,10.94
2022-10-09T05:32:10.775Z,10.89
2022-10-09T05:33:11.275Z,10.92
2022-10-09T05:34:11.905Z,10.89
2022-10-09T05:35:12.826Z,10.82
2022-10-09T05:36:12.724Z,10.97
2022-10-09T05:37:13.638Z,10.83
2022-10-09T05:38:14.548Z,10.95
2022-10-09T05:39:15.168Z,10.87
2022-10-09T05:40:15.384Z,10.98
2022-10-09T05:41:16.052Z,10.95
2022-10-09T05:42:16.780Z,10.92
2022-10-09T05:43:16.967Z,10.97
2022-10-09T05:44:17.865Z,11.07
2022-10-09T05:45:17.908Z,11.04
2022-10-09T05:46:19.001Z,10.89
2022-10-09T05:47:19.238Z,10.92
2022-10-09T05:48:20.572Z,11.01
2022-10-09T05:49:21.063Z,10.98
2022-10-09T05:50:20.676Z,10.9
2022-10-09T05:51:21.316Z,10.86
2022-10-09T05:52:22.602Z,10.86
2022-10-09T05:53:22.206Z,10.79
2022-10-09T05:54:22.839Z,10.84
2022-10-09T05:55:23.825Z,10.86
2022-10-09T05:56:24.305Z,10.87
2022-10-09T05:57:24.500Z,11
2022-10-09T05:58:24.128Z,10.86
2022-10-09T05:59:25.342Z,10.89
2022-10-09T06:00:25.532Z,10.87
2022-10-09T06:01:26.487Z,10.97
2022-10-09T06:02:26.848Z,10.98
2022-10-09T06:03:27.449Z,11.02
2022-10-09T06:04:27.852Z,10.9
2022-10-09T06:05:27.184Z,10.92
2022-10-09T06:06:28.396Z,10.86
2022-10-09T06:07:28.327Z,10.86
2022-10-09T06:08:28.942Z,10.92
2022-10-09T06:09:29.330Z,10.98
2022-10-09T06:10:32.825Z,10.98
2022-10-09T06:11:29.741Z,11.05
2022-10-09T06:12:30.488Z,11.05
2022-10-09T06:13:31.104Z,11.01
2022-10-09T06:14:32.300Z,11.12
2022-10-09T06:15:32.932Z,11.01
2022-10-09T06:16:34.007Z,11.04
2022-10-09T06:17:33.719Z,11.1
2022-10-09T06:18:34.929Z,11.13
2022-10-09T06:19:35.906Z,11.16
2022-10-09T06:20:36.806Z,11.16
2022-10-09T06:21:37.739Z,11.13
2022-10-09T06:22:38.435Z,11.16
2022-10-09T06:23:38.549Z,11.1
2022-10-09T06:24:39.745Z,11.19
2022-10-09T06:25:39.972Z,11.19
2022-10-09T06:26:41.190Z,11.18
2022-10-09T06:27:41.691Z,11.13
2022-10-09T06:28:42.096Z,11.1
2022-10-09T06:29:41.582Z,11.07
2022-10-09T06:30:45.085Z,10.87
2022-10-09T06:31:42.319Z,10.86
2022-10-09T06:32:43.058Z,10.87
2022-10-09T06:33:43.252Z,10.86
2022-10-09T06:34:44.143Z,10.82
2022-10-09T06:35:44.484Z,10.71
2022-10-09T06:36:44.603Z,10.75
2022-10-09T06:37:45.511Z,10.72
2022-10-09T06:38:45.719Z,10.79
2022-10-09T06:39:46.911Z,10.71
2022-10-09T06:40:46.890Z,10.69
2022-10-09T06:41:47.812Z,10.69
2022-10-09T06:42:48.787Z,10.75
2022-10-09T06:43:49.081Z,10.72
2022-10-09T06:44:49.996Z,10.64
2022-10-09T06:45:50.625Z,10.71
2022-10-09T06:46:50.412Z,10.76
2022-10-09T06:47:51.617Z,10.77
2022-10-09T06:48:51.838Z,10.87
2022-10-09T06:49:52.454Z,10.84
2022-10-09T06:50:53.075Z,10.79
2022-10-09T06:51:53.692Z,10.97
2022-10-09T06:52:54.701Z,11.01
2022-10-09T06:53:54.622Z,11
2022-10-09T06:54:55.242Z,11.15
2022-10-09T06:55:55.770Z,11.1
2022-10-09T06:56:55.686Z,11.3
2022-10-09T06:57:55.910Z,11.19
2022-10-09T06:58:56.546Z,11.38
2022-10-09T06:59:57.156Z,11.31
2022-10-09T07:00:58.752Z,11.33
2022-10-09T07:01:59.230Z,11.4
2022-10-09T07:03:00.475Z,11.26
2022-10-09T07:04:00.630Z,11.37
2022-10-09T07:05:00.245Z,11.43
2022-10-09T07:06:01.142Z,11.4
2022-10-09T07:07:01.507Z,11.55
2022-10-09T07:08:02.123Z,11.51
2022-10-09T07:09:03.625Z,11.59
2022-10-09T07:10:04.558Z,11.58
2022-10-09T07:11:04.772Z,11.6
2022-10-09T07:12:05.690Z,11.59
2022-10-09T07:13:06.595Z,11.65
2022-10-09T07:14:07.242Z,11.67
2022-10-09T07:15:07.580Z,11.71
2022-10-09T07:16:11.144Z,11.73
2022-10-09T07:17:08.941Z,11.76
2022-10-09T07:18:08.836Z,11.73
2022-10-09T07:19:10.071Z,11.8
2022-10-09T07:20:10.289Z,11.71
2022-10-09T07:21:10.198Z,11.77
2022-10-09T07:22:11.090Z,11.81
2022-10-09T07:23:11.661Z,11.77
2022-10-09T07:24:12.306Z,11.83
2022-10-09T07:25:13.233Z,11.77
2022-10-09T07:26:13.195Z,11.67
2022-10-09T07:27:13.418Z,11.8
2022-10-09T07:28:14.788Z,11.68
2022-10-09T07:29:14.866Z,11.73
2022-10-09T07:30:15.480Z,11.73
2022-10-09T07:31:16.662Z,11.74
2022-10-09T07:32:16.270Z,11.71
2022-10-09T07:33:17.013Z,11.7
2022-10-09T07:34:17.910Z,11.67
2022-10-09T07:35:18.528Z,11.73
2022-10-09T07:36:18.448Z,11.62
2022-10-09T07:37:19.660Z,11.65
2022-10-09T07:38:20.275Z,11.65
2022-10-09T07:39:20.765Z,11.56
2022-10-09T07:40:20.663Z,11.58
2022-10-09T07:41:20.477Z,11.52
2022-10-09T07:42:21.700Z,11.56
2022-10-09T07:43:22.424Z,11.53
2022-10-09T07:44:22.043Z,11.49
2022-10-09T07:45:22.937Z,11.43
2022-10-09T07:46:23.385Z,11.41
2022-10-09T07:47:23.592Z,11.51
2022-10-09T07:48:24.876Z,11.45
2022-10-09T07:49:25.374Z,11.38
2022-10-09T07:50:25.152Z,11.41
2022-10-09T07:51:26.422Z,11.51
2022-10-09T07:52:27.342Z,11.4
2022-10-09T07:53:35.768Z,11.35
2022-10-09T07:54:28.883Z,11.41
2022-10-09T07:55:29.821Z,11.4
2022-10-09T07:56:30.758Z,11.37
2022-10-09T07:57:31.972Z,11.27
2022-10-09T07:58:32.000Z,11.22
2022-10-09T07:59:32.185Z,11.25
2022-10-09T08:00:32.397Z,11.3
2022-10-09T08:01:33.127Z,11.22
2022-10-09T08:02:33.683Z,11.35
2022-10-09T08:03:34.434Z,11.26
2022-10-09T08:04:35.053Z,11.3
2022-10-09T08:05:35.539Z,11.33
2022-10-09T08:06:35.905Z,11.31
2022-10-09T08:07:40.584Z,11.27
2022-10-09T08:08:38.078Z,11.37
2022-10-09T08:09:38.414Z,11.33
2022-10-09T08:10:38.608Z,11.37
2022-10-09T08:11:39.656Z,11.4
2022-10-09T08:12:39.578Z,11.37
2022-10-09T08:13:40.306Z,11.43
2022-10-09T08:14:40.523Z,11.41
2022-10-09T08:15:41.694Z,11.41
2022-10-09T08:16:42.042Z,11.48
2022-10-09T08:17:42.115Z,11.52
2022-10-09T08:18:43.018Z,11.52
2022-10-09T08:19:44.227Z,11.58
2022-10-09T08:20:44.417Z,11.53
2022-10-09T08:21:45.035Z,11.55
2022-10-09T08:22:45.736Z,11.62
2022-10-09T08:23:46.460Z,11.6
2022-10-09T08:24:46.366Z,11.59
2022-10-09T08:25:47.281Z,11.7
2022-10-09T08:26:47.493Z,11.81
2022-10-09T08:27:48.687Z,11.86
2022-10-09T08:28:49.954Z,11.93
2022-10-09T08:29:50.178Z,11.91
2022-10-09T08:30:50.904Z,11.91
2022-10-09T08:31:50.482Z,11.93
2022-10-09T08:32:52.348Z,11.97
2022-10-09T08:33:51.920Z,12.05
2022-10-09T08:34:51.833Z,12.08
2022-10-09T08:35:52.758Z,12.21
2022-10-09T08:36:53.249Z,12.2
2022-10-09T08:37:53.435Z,12.21
2022-10-09T08:38:54.237Z,12.28
2022-10-09T08:39:54.179Z,12.4
2022-10-09T08:40:58.457Z,12.4
2022-10-09T08:41:55.373Z,12.37
2022-10-09T08:42:56.821Z,12.37
2022-10-09T08:43:57.403Z,12.44
2022-10-09T08:44:58.177Z,12.36
2022-10-09T08:45:58.799Z,12.37
2022-10-09T08:46:59.104Z,12.26
2022-10-09T08:47:59.759Z,12.35
2022-10-09T08:49:00.639Z,12.29
2022-10-09T08:50:01.568Z,12.39
2022-10-09T08:51:01.781Z,12.35
2022-10-09T08:52:02.703Z,12.3
2022-10-09T08:53:02.970Z,12.29
2022-10-09T08:54:03.375Z,12.37
2022-10-09T08:55:04.010Z,12.36
2022-10-09T08:56:05.226Z,12.37
2022-10-09T08:57:05.874Z,12.35
2022-10-09T08:58:06.188Z,12.43
2022-10-09T08:59:07.690Z,12.4
2022-10-09T09:00:08.591Z,12.35
2022-10-09T09:01:08.805Z,12.36
2022-10-09T09:02:10.116Z,12.43
2022-10-09T09:03:10.073Z,12.35
2022-10-09T09:04:10.837Z,12.33
2022-10-09T09:05:11.048Z,12.4
2022-10-09T09:06:11.235Z,12.39
2022-10-09T09:07:11.723Z,12.43
2022-10-09T09:08:11.614Z,12.36
2022-10-09T09:09:12.524Z,12.4
2022-10-09T09:10:13.443Z,12.39
2022-10-09T09:11:16.110Z,12.51
2022-10-09T09:12:14.061Z,12.55
2022-10-09T09:13:15.033Z,12.57
2022-10-09T09:14:15.587Z,12.69
2022-10-09T09:15:16.235Z,12.75
2022-10-09T09:16:16.662Z,12.68
2022-10-09T09:17:16.696Z,12.58
2022-10-09T09:18:17.337Z,12.78
2022-10-09T09:19:18.517Z,12.81
2022-10-09T09:20:19.027Z,12.83
2022-10-09T09:21:19.238Z,12.7
2022-10-09T09:22:19.899Z,12.68
2022-10-09T09:23:20.422Z,12.68
2022-10-09T09:24:20.839Z,12.66
2022-10-09T09:25:21.758Z,12.66
2022-10-09T09:26:22.951Z,12.63
2022-10-09T09:27:22.893Z,12.63
2022-10-09T09:28:23.290Z,12.69
2022-10-09T09:29:23.404Z,12.63
2022-10-09T09:30:24.323Z,12.61
2022-10-09T09:31:25.540Z,12.66
2022-10-09T09:32:25.701Z,12.76
2022-10-09T09:33:25.921Z,12.84
2022-10-09T09:34:25.982Z,12.8
2022-10-09T09:35:26.911Z,12.83
2022-10-09T09:36:27.401Z,12.9
2022-10-09T09:37:27.318Z,12.9
2022-10-09T09:38:27.540Z,12.87
2022-10-09T09:40:46.693Z,13.05
2022-10-09T09:41:03.986Z,13.11
2022-10-09T09:42:04.184Z,13.13
2022-10-09T09:43:09.774Z,13.24
2022-10-09T09:44:04.698Z,13.19
2022-10-09T09:45:05.721Z,13.27
2022-10-09T09:46:06.735Z,13.36
2022-10-09T09:47:06.833Z,13.39
2022-10-09T09:48:07.047Z,13.23
2022-10-09T09:49:12.753Z,13.33
2022-10-09T09:50:42.603Z,13.26
2022-10-09T09:51:35.910Z,13.31
2022-10-09T09:52:35.555Z,13.39
2022-10-09T09:53:36.176Z,13.3
2022-10-09T09:54:37.095Z,13.31
2022-10-09T09:55:38.126Z,13.43
2022-10-09T09:57:22.068Z,13.43
2022-10-09T09:57:39.473Z,13.47
2022-10-09T09:58:40.409Z,13.45
2022-10-09T09:59:41.347Z,13.55
2022-10-09T10:00:41.536Z,13.54
2022-10-09T10:01:42.811Z,13.45
2022-10-09T10:02:43.176Z,13.52
2022-10-09T10:03:42.864Z,13.6
2022-10-09T10:04:49.158Z,13.52
2022-10-09T10:05:44.611Z,13.52
2022-10-09T10:06:44.820Z,13.52
2022-10-09T10:07:45.161Z,13.5
2022-10-09T10:08:46.826Z,13.5
2022-10-09T10:09:46.454Z,13.45
2022-10-09T10:10:47.067Z,13.33
2022-10-09T10:11:47.990Z,13.31
2022-10-09T10:12:49.135Z,13.3
2022-10-09T10:13:49.510Z,13.31
2022-10-09T10:14:50.722Z,13.26
2022-10-09T10:15:51.614Z,13.23
2022-10-09T10:16:52.033Z,13.37
2022-10-09T10:17:52.942Z,13.24
2022-10-09T10:18:53.009Z,13.16
2022-10-09T10:19:54.068Z,13.21
2022-10-09T10:20:54.248Z,13.2
2022-10-09T10:21:54.858Z,13.21
2022-10-09T10:22:55.426Z,13.16
2022-10-09T10:23:55.164Z,13.13
2022-10-09T10:24:55.826Z,13.13
2022-10-09T10:25:56.523Z,13.27
2022-10-09T10:26:57.444Z,13.24
2022-10-09T10:27:58.458Z,13.26
2022-10-09T10:28:58.527Z,13.26
2022-10-09T10:29:59.148Z,13.26
2022-10-09T10:30:59.468Z,13.12
2022-10-09T10:31:59.485Z,13.13
2022-10-09T10:33:00.124Z,13.16
2022-10-09T10:34:01.042Z,13.13
2022-10-09T10:35:01.987Z,13.21
2022-10-09T10:36:03.281Z,13.26
2022-10-09T10:37:08.943Z,13.24
2022-10-09T10:38:04.263Z,13.17
2022-10-09T10:39:05.178Z,13.24
2022-10-09T10:40:05.099Z,13.39
2022-10-09T10:41:05.436Z,13.3
2022-10-09T10:42:05.819Z,13.24
2022-10-09T10:43:06.761Z,13.26
2022-10-09T10:44:07.281Z,13.12
2022-10-09T10:45:07.472Z,13.08
2022-10-09T10:46:07.626Z,13.11
2022-10-09T10:47:08.294Z,13.09
2022-10-09T10:48:08.190Z,13.12
2022-10-09T10:49:09.136Z,13.19
2022-10-09T10:50:10.082Z,13.2
2022-10-09T10:51:09.966Z,13.16
2022-10-09T10:52:10.870Z,13.2
2022-10-09T10:53:11.189Z,13.19
2022-10-09T10:54:11.378Z,13.13
2022-10-09T10:55:11.990Z,13.11
2022-10-09T10:56:12.782Z,13.2
2022-10-09T10:57:13.992Z,13.2
2022-10-09T10:58:15.035Z,13.16
2022-10-09T10:59:15.009Z,13.16
2022-10-09T11:00:15.653Z,13.19
2022-10-09T11:01:16.640Z,13.12
2022-10-09T11:02:17.222Z,13.3
2022-10-09T11:03:18.059Z,13.39
2022-10-09T11:04:19.315Z,13.43
2022-10-09T11:05:19.257Z,13.26
2022-10-09T11:06:19.979Z,13.42
2022-10-09T11:07:21.189Z,13.21
2022-10-09T11:08:21.794Z,13.28
2022-10-09T11:09:22.732Z,13.23
2022-10-09T11:10:23.625Z,13.36
2022-10-09T11:11:24.221Z,13.26
2022-10-09T11:12:57.974Z,13.19
2022-10-09T11:13:25.458Z,13.13
2022-10-09T11:14:26.246Z,13.06
2022-10-09T11:15:26.467Z,12.98
2022-10-09T11:16:26.815Z,13.09
2022-10-09T11:17:27.187Z,13.12
2022-10-09T11:18:27.809Z,13.12
2022-10-09T11:19:27.877Z,13.08
2022-10-09T11:20:29.428Z,13.26
2022-10-09T11:21:29.629Z,13.16
2022-10-09T11:22:30.816Z,13.26
2022-10-09T11:23:30.739Z,13.33
2022-10-09T11:24:31.351Z,13.3
2022-10-09T11:25:31.990Z,13.26
2022-10-09T11:26:32.428Z,13.27
2022-10-09T11:27:33.022Z,13.39
2022-10-09T11:28:33.899Z,13.4
2022-10-09T11:29:34.274Z,13.47
2022-10-09T11:30:35.478Z,13.55
2022-10-09T11:31:35.578Z,13.6
2022-10-09T11:32:36.761Z,13.71
2022-10-09T11:33:37.130Z,13.71
2022-10-09T11:34:37.352Z,13.76
2022-10-09T11:35:38.273Z,13.79
2022-10-09T11:36:38.300Z,13.75
2022-10-09T11:37:39.234Z,13.78
2022-10-09T11:38:40.256Z,13.79
2022-10-09T11:39:40.880Z,13.68
2022-10-09T11:40:40.796Z,13.6
2022-10-09T11:41:40.993Z,13.6
2022-10-09T11:42:41.188Z,13.55
2022-10-09T11:43:41.827Z,13.57
2022-10-09T11:44:42.881Z,13.57
2022-10-09T11:45:44.030Z,13.5
2022-10-09T11:46:45.237Z,13.52
2022-10-09T11:47:45.506Z,13.4
2022-10-09T11:48:45.949Z,13.43
2022-10-09T11:49:46.871Z,13.37
2022-10-09T11:50:47.241Z,13.39
2022-10-09T11:51:47.867Z,13.3
2022-10-09T11:52:49.365Z,13.46
2022-10-09T11:53:49.987Z,13.37
2022-10-09T11:54:50.485Z,13.4
2022-10-09T11:55:50.700Z,13.39
2022-10-09T11:56:51.048Z,13.37
2022-10-09T11:57:52.647Z,13.47
2022-10-09T11:58:52.511Z,13.45
2022-10-09T11:59:52.730Z,13.58
2022-10-09T12:00:53.163Z,13.52
2022-10-09T12:01:53.393Z,13.55
2022-10-09T12:02:53.587Z,13.55
2022-10-09T12:04:00.773Z,13.54
2022-10-09T12:05:00.860Z,13.6
2022-10-09T12:05:55.781Z,13.7
2022-10-09T12:06:57.079Z,13.64
2022-10-09T12:07:57.416Z,13.64
2022-10-09T12:08:57.741Z,13.71
2022-10-09T12:09:58.671Z,13.62
2022-10-09T12:10:59.307Z,13.65
2022-10-09T12:11:59.926Z,13.65
2022-10-09T12:13:00.548Z,13.68
2022-10-09T12:14:01.479Z,13.71
2022-10-09T12:15:02.457Z,13.65
2022-10-09T12:16:02.375Z,13.57
2022-10-09T12:17:04.158Z,13.62
2022-10-09T12:18:04.077Z,13.49
2022-10-09T12:19:04.714Z,13.49
2022-10-09T12:20:07.252Z,13.43
2022-10-09T12:21:05.966Z,13.47
2022-10-09T12:22:07.162Z,13.49
2022-10-09T12:23:32.350Z,13.55
2022-10-09T12:24:08.517Z,13.4
2022-10-09T12:25:08.710Z,13.42
2022-10-09T12:26:08.623Z,13.43
2022-10-09T12:27:08.786Z,13.36
2022-10-09T12:28:10.399Z,13.31
2022-10-09T12:29:09.919Z,13.37
2022-10-09T12:30:10.874Z,13.37
2022-10-09T12:31:12.162Z,13.42
2022-10-09T12:32:12.268Z,13.45
2022-10-09T12:33:12.764Z,13.45
2022-10-09T12:34:13.108Z,13.43
2022-10-09T12:35:13.455Z,13.46
2022-10-09T12:36:14.535Z,13.46
2022-10-09T12:37:15.263Z,13.52
2022-10-09T12:38:16.164Z,13.6
2022-10-09T12:39:17.113Z,13.6
2022-10-09T12:40:17.010Z,13.55
2022-10-09T12:41:20.878Z,13.68
2022-10-09T12:42:17.899Z,13.73
2022-10-09T12:43:17.950Z,13.68
2022-10-09T12:44:18.844Z,13.61
2022-10-09T12:45:19.100Z,13.57
2022-10-09T12:46:19.817Z,13.5
2022-10-09T12:47:20.265Z,13.57
2022-10-09T12:48:21.199Z,13.55
2022-10-09T12:49:21.816Z,13.64
2022-10-09T12:50:23.311Z,13.68
2022-10-09T12:51:22.955Z,13.65
2022-10-09T12:52:23.874Z,13.62
2022-10-09T12:53:25.072Z,13.62
2022-10-09T12:54:25.589Z,13.67
2022-10-09T12:55:25.783Z,13.61
2022-10-09T12:56:26.976Z,13.71
2022-10-09T12:57:31.298Z,13.78
2022-10-09T12:58:27.195Z,13.75
2022-10-09T12:59:27.858Z,13.83
2022-10-09T13:00:28.106Z,13.82
2022-10-09T13:01:29.490Z,13.85
2022-10-09T13:02:30.425Z,13.78
2022-10-09T13:03:30.756Z,13.79
2022-10-09T13:04:30.677Z,13.76